sensor_id;sensor_type;location;lat;lon;timestamp;temperature;humidity
796;DHT22;381;48.770;9.188;2023-02-01T00:03:40;6.20;99.90
796;DHT22;381;48.770;9.188;2023-02-01T00:08:42;6.30;99.90
796;DHT22;381;48.770;9.188;2023-02-01T00:13:44;6.30;99.90
796;DHT22;381;48.770;9.188;2023-02-01T00:18:49;6.20;99.90
796;DHT22;381;48.770;9.188;2023-02-01T00:23:52;6.20;99.90
796;DHT22;381;48.770;9.188;2023-02-01T00:28:54;6.30;99.90
796;DHT22;381;48.770;9.188;2023-02-01T00:33:57;6.20;99.90
796;DHT22;381;48.770;9.188;2023-02-01T00:38:59;6.30;99.90
796;DHT22;381;48.770;9.188;2023-02-01T00:44:02;6.50;99.90
796;DHT22;381;48.770;9.188;2023-02-01T00:49:05;6.70;99.90
796;DHT22;381;48.770;9.188;2023-02-01T00:54:09;6.70;99.90
796;DHT22;381;48.770;9.188;2023-02-01T00:59:12;6.60;99.90
796;DHT22;381;48.770;9.188;2023-02-01T01:04:15;6.50;99.90
796;DHT22;381;48.770;9.188;2023-02-01T01:09:17;6.50;99.90
796;DHT22;381;48.770;9.188;2023-02-01T01:14:19;6.50;99.90
796;DHT22;381;48.770;9.188;2023-02-01T01:19:23;6.60;99.90
796;DHT22;381;48.770;9.188;2023-02-01T01:24:25;6.70;99.90
796;DHT22;381;48.770;9.188;2023-02-01T01:29:27;6.70;99.90
796;DHT22;381;48.770;9.188;2023-02-01T01:34:30;6.80;99.90
796;DHT22;381;48.770;9.188;2023-02-01T01:39:33;7.00;99.90
796;DHT22;381;48.770;9.188;2023-02-01T01:44:58;6.90;99.90
796;DHT22;381;48.770;9.188;2023-02-01T01:50:06;6.80;99.90
796;DHT22;381;48.770;9.188;2023-02-01T01:55:09;6.70;99.90
796;DHT22;381;48.770;9.188;2023-02-01T02:00:14;6.70;99.90
796;DHT22;381;48.770;9.188;2023-02-01T02:05:21;6.60;99.90
796;DHT22;381;48.770;9.188;2023-02-01T02:10:23;6.50;99.90
796;DHT22;381;48.770;9.188;2023-02-01T02:15:50;6.50;99.90
796;DHT22;381;48.770;9.188;2023-02-01T02:21:15;6.70;99.90
796;DHT22;381;48.770;9.188;2023-02-01T02:32:22;7.00;99.90
796;DHT22;381;48.770;9.188;2023-02-01T02:37:38;6.80;99.90
796;DHT22;381;48.770;9.188;2023-02-01T02:42:49;6.90;99.90
796;DHT22;381;48.770;9.188;2023-02-01T02:48:16;6.90;99.90
796;DHT22;381;48.770;9.188;2023-02-01T02:53:27;6.80;99.90
796;DHT22;381;48.770;9.188;2023-02-01T02:58:48;6.80;99.90
796;DHT22;381;48.770;9.188;2023-02-01T03:04:09;6.60;99.90
796;DHT22;381;48.770;9.188;2023-02-01T03:09:23;6.50;99.90
796;DHT22;381;48.770;9.188;2023-02-01T03:14:29;6.50;99.90
796;DHT22;381;48.770;9.188;2023-02-01T03:19:34;6.40;99.90
796;DHT22;381;48.770;9.188;2023-02-01T03:24:41;6.40;99.90
796;DHT22;381;48.770;9.188;2023-02-01T03:29:48;6.40;99.90
796;DHT22;381;48.770;9.188;2023-02-01T03:34:51;6.50;99.90
796;DHT22;381;48.770;9.188;2023-02-01T03:40:00;6.50;99.90
796;DHT22;381;48.770;9.188;2023-02-01T03:45:10;6.50;99.90
796;DHT22;381;48.770;9.188;2023-02-01T03:50:15;6.50;99.90
796;DHT22;381;48.770;9.188;2023-02-01T03:55:21;6.40;99.90
796;DHT22;381;48.770;9.188;2023-02-01T04:00:26;6.50;99.90
796;DHT22;381;48.770;9.188;2023-02-01T04:05:30;6.40;99.90
796;DHT22;381;48.770;9.188;2023-02-01T04:10:43;6.50;99.90
796;DHT22;381;48.770;9.188;2023-02-01T04:15:47;6.50;99.90
796;DHT22;381;48.770;9.188;2023-02-01T04:20:50;6.50;99.90
796;DHT22;381;48.770;9.188;2023-02-01T04:25:55;6.70;99.90
796;DHT22;381;48.770;9.188;2023-02-01T04:31:00;6.70;99.90
796;DHT22;381;48.770;9.188;2023-02-01T04:36:02;6.70;99.90
796;DHT22;381;48.770;9.188;2023-02-01T04:41:06;6.60;99.90
796;DHT22;381;48.770;9.188;2023-02-01T04:46:08;6.60;99.90
796;DHT22;381;48.770;9.188;2023-02-01T04:51:10;6.60;99.90
796;DHT22;381;48.770;9.188;2023-02-01T04:56:14;6.60;99.90
796;DHT22;381;48.770;9.188;2023-02-01T05:01:16;6.60;99.90
796;DHT22;381;48.770;9.188;2023-02-01T05:06:18;6.60;99.90
796;DHT22;381;48.770;9.188;2023-02-01T05:11:21;6.80;99.90
796;DHT22;381;48.770;9.188;2023-02-01T05:16:41;6.90;99.90
796;DHT22;381;48.770;9.188;2023-02-01T05:21:43;6.80;99.90
796;DHT22;381;48.770;9.188;2023-02-01T05:27:43;6.80;99.90
796;DHT22;381;48.770;9.188;2023-02-01T05:38:27;7.00;99.90
796;DHT22;381;48.770;9.188;2023-02-01T05:43:31;7.00;99.90
796;DHT22;381;48.770;9.188;2023-02-01T05:48:33;7.00;99.90
796;DHT22;381;48.770;9.188;2023-02-01T05:53:35;6.90;99.90
796;DHT22;381;48.770;9.188;2023-02-01T05:58:39;6.80;99.90
796;DHT22;381;48.770;9.188;2023-02-01T06:03:41;7.00;99.90
796;DHT22;381;48.770;9.188;2023-02-01T06:08:43;7.00;99.90
796;DHT22;381;48.770;9.188;2023-02-01T06:13:46;6.90;99.90
796;DHT22;381;48.770;9.188;2023-02-01T06:18:49;6.80;99.90
796;DHT22;381;48.770;9.188;2023-02-01T06:23:51;6.70;99.90
796;DHT22;381;48.770;9.188;2023-02-01T06:28:56;6.60;99.90
796;DHT22;381;48.770;9.188;2023-02-01T06:33:58;6.40;99.90
796;DHT22;381;48.770;9.188;2023-02-01T06:39:00;6.40;99.90
796;DHT22;381;48.770;9.188;2023-02-01T06:44:04;6.40;99.90
796;DHT22;381;48.770;9.188;2023-02-01T06:49:06;6.40;99.90
796;DHT22;381;48.770;9.188;2023-02-01T06:54:09;6.50;99.90
796;DHT22;381;48.770;9.188;2023-02-01T06:59:12;6.70;99.90
796;DHT22;381;48.770;9.188;2023-02-01T07:04:14;6.80;99.90
796;DHT22;381;48.770;9.188;2023-02-01T07:09:16;6.80;99.90
796;DHT22;381;48.770;9.188;2023-02-01T07:14:19;6.80;99.90
796;DHT22;381;48.770;9.188;2023-02-01T07:19:22;6.80;99.90
796;DHT22;381;48.770;9.188;2023-02-01T07:24:24;6.80;99.90
796;DHT22;381;48.770;9.188;2023-02-01T07:29:27;7.00;99.90
796;DHT22;381;48.770;9.188;2023-02-01T07:34:29;7.10;99.90
796;DHT22;381;48.770;9.188;2023-02-01T07:39:32;7.10;99.90
796;DHT22;381;48.770;9.188;2023-02-01T07:44:38;7.10;99.90
796;DHT22;381;48.770;9.188;2023-02-01T07:49:41;7.10;99.90
796;DHT22;381;48.770;9.188;2023-02-01T07:54:43;7.10;99.90
796;DHT22;381;48.770;9.188;2023-02-01T07:59:46;7.20;99.90
796;DHT22;381;48.770;9.188;2023-02-01T08:05:02;7.20;99.90
796;DHT22;381;48.770;9.188;2023-02-01T08:10:06;7.20;99.90
796;DHT22;381;48.770;9.188;2023-02-01T08:15:13;7.30;99.90
796;DHT22;381;48.770;9.188;2023-02-01T08:20:15;7.60;99.90
796;DHT22;381;48.770;9.188;2023-02-01T08:25:18;7.60;99.90
796;DHT22;381;48.770;9.188;2023-02-01T08:30:21;7.60;99.90
796;DHT22;381;48.770;9.188;2023-02-01T08:35:23;7.60;99.90
796;DHT22;381;48.770;9.188;2023-02-01T08:40:25;7.50;99.90
796;DHT22;381;48.770;9.188;2023-02-01T08:45:29;7.50;99.90
796;DHT22;381;48.770;9.188;2023-02-01T08:50:31;7.50;99.90
796;DHT22;381;48.770;9.188;2023-02-01T08:55:33;7.60;99.90
796;DHT22;381;48.770;9.188;2023-02-01T09:00:37;7.70;99.90
796;DHT22;381;48.770;9.188;2023-02-01T09:05:39;7.70;99.90
796;DHT22;381;48.770;9.188;2023-02-01T09:10:42;7.70;99.90
796;DHT22;381;48.770;9.188;2023-02-01T09:15:45;7.70;99.90
796;DHT22;381;48.770;9.188;2023-02-01T09:20:47;7.70;99.90
796;DHT22;381;48.770;9.188;2023-02-01T09:25:49;7.70;99.90
796;DHT22;381;48.770;9.188;2023-02-01T09:30:56;7.70;99.90
796;DHT22;381;48.770;9.188;2023-02-01T09:36:00;7.70;99.90
796;DHT22;381;48.770;9.188;2023-02-01T09:41:07;7.80;99.90
796;DHT22;381;48.770;9.188;2023-02-01T09:46:22;8.00;99.90
796;DHT22;381;48.770;9.188;2023-02-01T09:51:28;8.20;99.60
796;DHT22;381;48.770;9.188;2023-02-01T09:56:36;8.30;99.60
796;DHT22;381;48.770;9.188;2023-02-01T10:01:41;8.40;98.70
796;DHT22;381;48.770;9.188;2023-02-01T10:07:01;8.40;98.50
796;DHT22;381;48.770;9.188;2023-02-01T10:18:00;8.50;98.40
796;DHT22;381;48.770;9.188;2023-02-01T10:23:08;8.50;98.00
796;DHT22;381;48.770;9.188;2023-02-01T10:28:15;8.50;98.10
796;DHT22;381;48.770;9.188;2023-02-01T10:33:25;8.50;97.20
796;DHT22;381;48.770;9.188;2023-02-01T10:38:30;8.70;97.50
796;DHT22;381;48.770;9.188;2023-02-01T10:43:33;8.80;97.40
796;DHT22;381;48.770;9.188;2023-02-01T10:48:37;8.80;97.70
796;DHT22;381;48.770;9.188;2023-02-01T10:53:46;9.00;96.50
796;DHT22;381;48.770;9.188;2023-02-01T10:58:50;9.10;96.90
796;DHT22;381;48.770;9.188;2023-02-01T11:03:56;9.10;95.70
796;DHT22;381;48.770;9.188;2023-02-01T11:09:01;9.10;95.60
796;DHT22;381;48.770;9.188;2023-02-01T11:14:14;9.00;95.00
796;DHT22;381;48.770;9.188;2023-02-01T11:19:18;9.10;95.20
796;DHT22;381;48.770;9.188;2023-02-01T11:24:23;9.20;94.50
796;DHT22;381;48.770;9.188;2023-02-01T11:29:28;9.10;94.90
796;DHT22;381;48.770;9.188;2023-02-01T11:34:38;9.00;95.10
796;DHT22;381;48.770;9.188;2023-02-01T11:39:41;8.90;94.90
796;DHT22;381;48.770;9.188;2023-02-01T11:44:44;8.90;95.80
796;DHT22;381;48.770;9.188;2023-02-01T11:49:49;9.00;95.50
796;DHT22;381;48.770;9.188;2023-02-01T11:55:10;9.10;95.00
796;DHT22;381;48.770;9.188;2023-02-01T12:00:30;9.20;94.40
796;DHT22;381;48.770;9.188;2023-02-01T12:05:48;9.20;94.00
796;DHT22;381;48.770;9.188;2023-02-01T12:11:04;9.30;93.60
796;DHT22;381;48.770;9.188;2023-02-01T12:16:19;9.30;93.20
796;DHT22;381;48.770;9.188;2023-02-01T12:21:37;9.20;93.60
796;DHT22;381;48.770;9.188;2023-02-01T12:26:52;9.00;93.50
796;DHT22;381;48.770;9.188;2023-02-01T12:32:06;8.90;93.70
796;DHT22;381;48.770;9.188;2023-02-01T12:37:19;8.80;93.80
796;DHT22;381;48.770;9.188;2023-02-01T12:42:26;8.90;93.10
796;DHT22;381;48.770;9.188;2023-02-01T12:47:32;9.00;93.20
796;DHT22;381;48.770;9.188;2023-02-01T12:52:40;8.90;93.10
796;DHT22;381;48.770;9.188;2023-02-01T12:57:47;8.80;93.70
796;DHT22;381;48.770;9.188;2023-02-01T13:02:55;8.60;94.00
796;DHT22;381;48.770;9.188;2023-02-01T13:08:02;8.60;94.00
796;DHT22;381;48.770;9.188;2023-02-01T13:13:11;8.50;94.50
796;DHT22;381;48.770;9.188;2023-02-01T13:18:18;8.50;94.90
796;DHT22;381;48.770;9.188;2023-02-01T13:23:27;8.40;94.80
796;DHT22;381;48.770;9.188;2023-02-01T13:28:32;8.40;95.20
796;DHT22;381;48.770;9.188;2023-02-01T13:33:58;8.50;94.50
796;DHT22;381;48.770;9.188;2023-02-01T13:39:41;8.50;94.20
796;DHT22;381;48.770;9.188;2023-02-01T13:44:48;8.60;94.20
796;DHT22;381;48.770;9.188;2023-02-01T13:49:53;8.70;94.20
796;DHT22;381;48.770;9.188;2023-02-01T13:55:23;8.60;95.20
796;DHT22;381;48.770;9.188;2023-02-01T14:00:28;8.60;94.90
796;DHT22;381;48.770;9.188;2023-02-01T14:06:03;8.50;94.60
796;DHT22;381;48.770;9.188;2023-02-01T14:11:31;8.40;94.80
796;DHT22;381;48.770;9.188;2023-02-01T14:16:34;8.40;95.20
796;DHT22;381;48.770;9.188;2023-02-01T14:21:47;8.40;95.00
796;DHT22;381;48.770;9.188;2023-02-01T14:26:51;8.40;95.50
796;DHT22;381;48.770;9.188;2023-02-01T14:32:01;8.40;94.80
796;DHT22;381;48.770;9.188;2023-02-01T14:37:07;8.40;94.90
796;DHT22;381;48.770;9.188;2023-02-01T14:42:22;8.50;95.10
796;DHT22;381;48.770;9.188;2023-02-01T14:47:32;8.70;94.60
796;DHT22;381;48.770;9.188;2023-02-01T14:52:36;8.70;94.20
796;DHT22;381;48.770;9.188;2023-02-01T14:57:48;8.70;94.20
796;DHT22;381;48.770;9.188;2023-02-01T15:02:52;8.60;93.70
796;DHT22;381;48.770;9.188;2023-02-01T15:07:55;8.50;94.60
796;DHT22;381;48.770;9.188;2023-02-01T15:13:00;8.40;94.50
796;DHT22;381;48.770;9.188;2023-02-01T15:18:02;8.50;94.40
796;DHT22;381;48.770;9.188;2023-02-01T15:23:14;8.50;94.30
796;DHT22;381;48.770;9.188;2023-02-01T15:28:19;8.40;94.60
796;DHT22;381;48.770;9.188;2023-02-01T15:33:22;8.30;94.60
796;DHT22;381;48.770;9.188;2023-02-01T15:38:33;8.20;95.10
796;DHT22;381;48.770;9.188;2023-02-01T15:43:39;8.20;95.10
796;DHT22;381;48.770;9.188;2023-02-01T15:48:45;8.10;95.20
796;DHT22;381;48.770;9.188;2023-02-01T15:53:51;8.10;95.10
796;DHT22;381;48.770;9.188;2023-02-01T15:58:59;8.20;95.20
796;DHT22;381;48.770;9.188;2023-02-01T16:04:09;8.20;94.20
796;DHT22;381;48.770;9.188;2023-02-01T16:09:15;8.20;94.20
796;DHT22;381;48.770;9.188;2023-02-01T16:14:20;8.10;94.00
796;DHT22;381;48.770;9.188;2023-02-01T16:19:22;8.10;94.00
796;DHT22;381;48.770;9.188;2023-02-01T16:24:28;8.00;94.40
796;DHT22;381;48.770;9.188;2023-02-01T16:29:33;8.10;93.70
796;DHT22;381;48.770;9.188;2023-02-01T16:34:35;8.00;94.20
796;DHT22;381;48.770;9.188;2023-02-01T16:39:37;8.00;93.60
796;DHT22;381;48.770;9.188;2023-02-01T16:44:41;8.00;93.90
796;DHT22;381;48.770;9.188;2023-02-01T16:49:44;8.20;94.20
796;DHT22;381;48.770;9.188;2023-02-01T16:54:47;8.20;93.60
796;DHT22;381;48.770;9.188;2023-02-01T16:59:51;8.20;93.90
796;DHT22;381;48.770;9.188;2023-02-01T17:04:53;8.10;93.80
796;DHT22;381;48.770;9.188;2023-02-01T17:09:57;8.00;93.70
796;DHT22;381;48.770;9.188;2023-02-01T17:15:01;7.90;94.30
796;DHT22;381;48.770;9.188;2023-02-01T17:20:05;7.90;94.40
796;DHT22;381;48.770;9.188;2023-02-01T17:25:14;8.00;94.00
796;DHT22;381;48.770;9.188;2023-02-01T17:30:21;8.00;94.70
796;DHT22;381;48.770;9.188;2023-02-01T17:35:25;7.90;94.30
796;DHT22;381;48.770;9.188;2023-02-01T17:40:28;7.90;94.60
796;DHT22;381;48.770;9.188;2023-02-01T17:45:37;7.90;94.40
796;DHT22;381;48.770;9.188;2023-02-01T17:50:41;7.90;94.60
796;DHT22;381;48.770;9.188;2023-02-01T17:55:44;7.80;94.50
796;DHT22;381;48.770;9.188;2023-02-01T18:00:48;7.80;94.70
796;DHT22;381;48.770;9.188;2023-02-01T18:05:51;7.90;94.80
796;DHT22;381;48.770;9.188;2023-02-01T18:10:55;7.90;94.50
796;DHT22;381;48.770;9.188;2023-02-01T18:16:00;8.00;94.60
796;DHT22;381;48.770;9.188;2023-02-01T18:21:04;8.00;94.60
796;DHT22;381;48.770;9.188;2023-02-01T18:26:09;7.90;94.60
796;DHT22;381;48.770;9.188;2023-02-01T18:31:21;7.90;95.00
796;DHT22;381;48.770;9.188;2023-02-01T18:36:23;7.90;94.80
796;DHT22;381;48.770;9.188;2023-02-01T18:41:26;7.90;95.20
796;DHT22;381;48.770;9.188;2023-02-01T18:46:29;7.90;95.00
796;DHT22;381;48.770;9.188;2023-02-01T18:51:31;7.90;95.30
796;DHT22;381;48.770;9.188;2023-02-01T18:56:34;8.00;94.50
796;DHT22;381;48.770;9.188;2023-02-01T19:01:37;7.90;95.00
796;DHT22;381;48.770;9.188;2023-02-01T19:06:40;8.00;95.00
796;DHT22;381;48.770;9.188;2023-02-01T19:11:42;8.00;94.20
796;DHT22;381;48.770;9.188;2023-02-01T19:16:46;7.90;94.50
796;DHT22;381;48.770;9.188;2023-02-01T19:21:48;8.10;94.30
796;DHT22;381;48.770;9.188;2023-02-01T19:26:52;8.10;94.20
796;DHT22;381;48.770;9.188;2023-02-01T19:31:55;8.10;94.10
796;DHT22;381;48.770;9.188;2023-02-01T19:36:57;8.00;94.10
796;DHT22;381;48.770;9.188;2023-02-01T19:41:59;7.90;94.40
796;DHT22;381;48.770;9.188;2023-02-01T19:47:03;7.90;93.90
796;DHT22;381;48.770;9.188;2023-02-01T19:52:05;7.90;94.30
796;DHT22;381;48.770;9.188;2023-02-01T19:57:07;7.80;94.30
796;DHT22;381;48.770;9.188;2023-02-01T20:02:13;7.80;94.40
796;DHT22;381;48.770;9.188;2023-02-01T20:07:15;7.80;94.80
796;DHT22;381;48.770;9.188;2023-02-01T20:12:18;7.80;94.80
796;DHT22;381;48.770;9.188;2023-02-01T20:17:22;7.80;94.50
796;DHT22;381;48.770;9.188;2023-02-01T20:22:24;8.00;94.60
796;DHT22;381;48.770;9.188;2023-02-01T20:27:30;8.20;94.40
796;DHT22;381;48.770;9.188;2023-02-01T20:32:50;8.10;94.50
796;DHT22;381;48.770;9.188;2023-02-01T20:37:53;8.10;94.70
796;DHT22;381;48.770;9.188;2023-02-01T20:42:56;8.00;95.00
796;DHT22;381;48.770;9.188;2023-02-01T20:48:00;8.00;95.00
796;DHT22;381;48.770;9.188;2023-02-01T20:53:02;8.00;95.30
796;DHT22;381;48.770;9.188;2023-02-01T20:58:04;8.00;95.30
796;DHT22;381;48.770;9.188;2023-02-01T21:03:08;8.00;95.50
796;DHT22;381;48.770;9.188;2023-02-01T21:08:11;8.10;94.70
796;DHT22;381;48.770;9.188;2023-02-01T21:13:13;8.00;95.10
796;DHT22;381;48.770;9.188;2023-02-01T21:18:17;8.00;95.40
796;DHT22;381;48.770;9.188;2023-02-01T21:23:20;8.00;95.40
796;DHT22;381;48.770;9.188;2023-02-01T21:28:22;8.00;95.40
796;DHT22;381;48.770;9.188;2023-02-01T21:33:26;8.20;95.10
796;DHT22;381;48.770;9.188;2023-02-01T21:38:28;8.20;95.00
796;DHT22;381;48.770;9.188;2023-02-01T21:43:30;8.40;95.00
796;DHT22;381;48.770;9.188;2023-02-01T21:48:34;8.30;94.80
796;DHT22;381;48.770;9.188;2023-02-01T21:53:38;8.30;94.90
796;DHT22;381;48.770;9.188;2023-02-01T21:58:40;8.40;94.80
796;DHT22;381;48.770;9.188;2023-02-01T22:03:44;8.40;94.60
796;DHT22;381;48.770;9.188;2023-02-01T22:08:46;8.30;94.80
796;DHT22;381;48.770;9.188;2023-02-01T22:13:48;8.20;94.60
796;DHT22;381;48.770;9.188;2023-02-01T22:18:52;8.20;94.50
796;DHT22;381;48.770;9.188;2023-02-01T22:23:55;8.20;94.80
796;DHT22;381;48.770;9.188;2023-02-01T22:28:59;8.20;94.70
796;DHT22;381;48.770;9.188;2023-02-01T22:34:02;8.20;95.20
796;DHT22;381;48.770;9.188;2023-02-01T22:39:04;8.10;95.40
796;DHT22;381;48.770;9.188;2023-02-01T22:44:06;8.20;95.60
796;DHT22;381;48.770;9.188;2023-02-01T22:49:10;8.10;96.00
796;DHT22;381;48.770;9.188;2023-02-01T22:54:16;8.10;96.10
796;DHT22;381;48.770;9.188;2023-02-01T22:59:21;8.00;96.30
796;DHT22;381;48.770;9.188;2023-02-01T23:04:24;8.00;96.50
796;DHT22;381;48.770;9.188;2023-02-01T23:09:27;8.10;96.40
796;DHT22;381;48.770;9.188;2023-02-01T23:14:29;8.30;96.10
796;DHT22;381;48.770;9.188;2023-02-01T23:19:32;8.20;96.30
796;DHT22;381;48.770;9.188;2023-02-01T23:24:34;8.10;96.60
796;DHT22;381;48.770;9.188;2023-02-01T23:29:36;8.10;96.30
796;DHT22;381;48.770;9.188;2023-02-01T23:34:40;7.90;96.40
796;DHT22;381;48.770;9.188;2023-02-01T23:39:42;7.80;96.50
796;DHT22;381;48.770;9.188;2023-02-01T23:44:46;7.80;96.70
796;DHT22;381;48.770;9.188;2023-02-01T23:49:50;7.70;97.20
796;DHT22;381;48.770;9.188;2023-02-01T23:54:52;7.60;97.10
796;DHT22;381;48.770;9.188;2023-02-01T23:59:54;7.60;97.30
